sensor_id;sensor_type;location;lat;lon;timestamp;temperature;humidity
3770;DHT22;1900;48.890;9.190;2022-12-18T00:01:48;-1.00;52.50
3770;DHT22;1900;48.890;9.190;2022-12-18T00:04:20;-0.90;52.60
3770;DHT22;1900;48.890;9.190;2022-12-18T00:06:46;-1.00;52.60
3770;DHT22;1900;48.890;9.190;2022-12-18T00:09:12;-0.90;52.70
3770;DHT22;1900;48.890;9.190;2022-12-18T00:11:38;-0.90;52.70
3770;DHT22;1900;48.890;9.190;2022-12-18T00:14:03;-0.90;52.70
3770;DHT22;1900;48.890;9.190;2022-12-18T00:16:29;-0.90;52.70
3770;DHT22;1900;48.890;9.190;2022-12-18T00:18:59;-0.90;52.60
3770;DHT22;1900;48.890;9.190;2022-12-18T00:21:25;-1.00;52.50
3770;DHT22;1900;48.890;9.190;2022-12-18T00:23:51;-0.90;52.60
3770;DHT22;1900;48.890;9.190;2022-12-18T00:26:19;-0.90;52.60
3770;DHT22;1900;48.890;9.190;2022-12-18T00:28:46;-0.90;52.50
3770;DHT22;1900;48.890;9.190;2022-12-18T00:31:15;-1.00;52.40
3770;DHT22;1900;48.890;9.190;2022-12-18T00:33:41;-0.90;52.60
3770;DHT22;1900;48.890;9.190;2022-12-18T00:36:15;-1.00;52.50
3770;DHT22;1900;48.890;9.190;2022-12-18T00:38:42;-1.00;52.50
3770;DHT22;1900;48.890;9.190;2022-12-18T00:41:09;-1.00;52.40
3770;DHT22;1900;48.890;9.190;2022-12-18T00:43:36;-1.00;52.30
3770;DHT22;1900;48.890;9.190;2022-12-18T00:46:02;-1.00;52.30
3770;DHT22;1900;48.890;9.190;2022-12-18T00:48:28;-1.10;52.20
3770;DHT22;1900;48.890;9.190;2022-12-18T00:50:54;-1.10;52.20
3770;DHT22;1900;48.890;9.190;2022-12-18T00:53:20;-1.10;52.30
3770;DHT22;1900;48.890;9.190;2022-12-18T00:55:46;-1.10;52.20
3770;DHT22;1900;48.890;9.190;2022-12-18T00:58:13;-1.10;52.20
3770;DHT22;1900;48.890;9.190;2022-12-18T01:00:39;-1.20;52.00
3770;DHT22;1900;48.890;9.190;2022-12-18T01:03:05;-1.20;52.00
3770;DHT22;1900;48.890;9.190;2022-12-18T01:05:32;-1.20;51.90
3770;DHT22;1900;48.890;9.190;2022-12-18T01:07:58;-1.30;51.80
3770;DHT22;1900;48.890;9.190;2022-12-18T01:10:24;-1.30;51.80
3770;DHT22;1900;48.890;9.190;2022-12-18T01:12:50;-1.30;51.80
3770;DHT22;1900;48.890;9.190;2022-12-18T01:15:17;-1.40;51.60
3770;DHT22;1900;48.890;9.190;2022-12-18T01:17:43;-1.40;51.50
3770;DHT22;1900;48.890;9.190;2022-12-18T01:20:11;-1.50;51.30
3770;DHT22;1900;48.890;9.190;2022-12-18T01:22:37;-1.60;51.20
3770;DHT22;1900;48.890;9.190;2022-12-18T01:25:04;-1.60;51.10
3770;DHT22;1900;48.890;9.190;2022-12-18T01:27:31;-1.70;51.00
3770;DHT22;1900;48.890;9.190;2022-12-18T01:29:58;-1.80;51.00
3770;DHT22;1900;48.890;9.190;2022-12-18T01:32:24;-1.80;51.00
3770;DHT22;1900;48.890;9.190;2022-12-18T01:34:50;-1.80;51.10
3770;DHT22;1900;48.890;9.190;2022-12-18T01:37:16;-1.90;51.10
3770;DHT22;1900;48.890;9.190;2022-12-18T01:39:41;-1.90;51.10
3770;DHT22;1900;48.890;9.190;2022-12-18T01:42:14;-2.00;51.00
3770;DHT22;1900;48.890;9.190;2022-12-18T01:44:57;-2.00;51.00
3770;DHT22;1900;48.890;9.190;2022-12-18T01:49:50;-2.10;51.00
3770;DHT22;1900;48.890;9.190;2022-12-18T01:52:17;-2.10;51.00
3770;DHT22;1900;48.890;9.190;2022-12-18T01:54:44;-2.10;51.10
3770;DHT22;1900;48.890;9.190;2022-12-18T01:57:10;-2.10;51.10
3770;DHT22;1900;48.890;9.190;2022-12-18T01:59:36;-2.10;51.10
3770;DHT22;1900;48.890;9.190;2022-12-18T02:02:04;-2.20;51.00
3770;DHT22;1900;48.890;9.190;2022-12-18T02:04:30;-2.20;51.00
3770;DHT22;1900;48.890;9.190;2022-12-18T02:07:07;-2.20;51.00
3770;DHT22;1900;48.890;9.190;2022-12-18T02:09:52;-2.20;51.00
3770;DHT22;1900;48.890;9.190;2022-12-18T02:12:25;-2.20;51.00
3770;DHT22;1900;48.890;9.190;2022-12-18T02:17:45;-2.30;51.10
3770;DHT22;1900;48.890;9.190;2022-12-18T02:20:21;-2.30;51.10
3770;DHT22;1900;48.890;9.190;2022-12-18T02:29:10;-2.40;51.00
3770;DHT22;1900;48.890;9.190;2022-12-18T02:31:45;-2.40;51.00
3770;DHT22;1900;48.890;9.190;2022-12-18T02:34:13;-2.40;51.00
3770;DHT22;1900;48.890;9.190;2022-12-18T02:36:42;-2.40;51.00
3770;DHT22;1900;48.890;9.190;2022-12-18T02:39:11;-2.40;51.00
3770;DHT22;1900;48.890;9.190;2022-12-18T02:41:43;-2.40;51.10
3770;DHT22;1900;48.890;9.190;2022-12-18T02:44:11;-2.50;51.00
3770;DHT22;1900;48.890;9.190;2022-12-18T02:46:44;-2.50;50.90
3770;DHT22;1900;48.890;9.190;2022-12-18T02:57:56;-2.50;51.30
3770;DHT22;1900;48.890;9.190;2022-12-18T03:01:01;-2.50;51.20
3770;DHT22;1900;48.890;9.190;2022-12-18T03:03:39;-2.50;51.20
3770;DHT22;1900;48.890;9.190;2022-12-18T03:06:08;-2.50;51.30
3770;DHT22;1900;48.890;9.190;2022-12-18T03:08:45;-2.40;51.40
3770;DHT22;1900;48.890;9.190;2022-12-18T03:11:14;-2.40;51.40
3770;DHT22;1900;48.890;9.190;2022-12-18T03:13:52;-2.40;51.30
3770;DHT22;1900;48.890;9.190;2022-12-18T03:16:28;-2.40;51.20
3770;DHT22;1900;48.890;9.190;2022-12-18T03:19:01;-2.40;51.20
3770;DHT22;1900;48.890;9.190;2022-12-18T03:21:36;-2.40;51.20
3770;DHT22;1900;48.890;9.190;2022-12-18T03:24:05;-2.40;51.30
3770;DHT22;1900;48.890;9.190;2022-12-18T03:26:34;-2.40;51.40
3770;DHT22;1900;48.890;9.190;2022-12-18T03:29:12;-2.40;51.50
3770;DHT22;1900;48.890;9.190;2022-12-18T03:31:41;-2.40;51.40
3770;DHT22;1900;48.890;9.190;2022-12-18T03:34:22;-2.40;51.40
3770;DHT22;1900;48.890;9.190;2022-12-18T03:36:48;-2.40;51.40
3770;DHT22;1900;48.890;9.190;2022-12-18T03:39:14;-2.40;51.40
3770;DHT22;1900;48.890;9.190;2022-12-18T03:42:04;-2.40;51.40
3770;DHT22;1900;48.890;9.190;2022-12-18T03:47:50;-2.30;51.60
3770;DHT22;1900;48.890;9.190;2022-12-18T03:50:16;-2.30;51.60
3770;DHT22;1900;48.890;9.190;2022-12-18T03:53:01;-2.30;51.60
3770;DHT22;1900;48.890;9.190;2022-12-18T03:55:33;-2.30;51.50
3770;DHT22;1900;48.890;9.190;2022-12-18T03:58:03;-2.30;51.50
3770;DHT22;1900;48.890;9.190;2022-12-18T04:00:42;-2.30;51.60
3770;DHT22;1900;48.890;9.190;2022-12-18T04:03:10;-2.30;51.60
3770;DHT22;1900;48.890;9.190;2022-12-18T04:05:42;-2.30;51.60
3770;DHT22;1900;48.890;9.190;2022-12-18T04:08:09;-2.30;51.60
3770;DHT22;1900;48.890;9.190;2022-12-18T04:10:39;-2.20;51.70
3770;DHT22;1900;48.890;9.190;2022-12-18T04:13:05;-2.20;51.60
3770;DHT22;1900;48.890;9.190;2022-12-18T04:15:35;-2.20;51.60
3770;DHT22;1900;48.890;9.190;2022-12-18T04:18:03;-2.20;51.60
3770;DHT22;1900;48.890;9.190;2022-12-18T04:20:36;-2.20;51.60
3770;DHT22;1900;48.890;9.190;2022-12-18T04:23:02;-2.20;51.70
3770;DHT22;1900;48.890;9.190;2022-12-18T04:25:28;-2.20;51.70
3770;DHT22;1900;48.890;9.190;2022-12-18T04:28:04;-2.20;51.80
3770;DHT22;1900;48.890;9.190;2022-12-18T04:30:31;-2.10;51.90
3770;DHT22;1900;48.890;9.190;2022-12-18T04:32:56;-2.20;51.70
3770;DHT22;1900;48.890;9.190;2022-12-18T04:35:22;-2.10;51.90
3770;DHT22;1900;48.890;9.190;2022-12-18T04:37:48;-2.10;51.90
3770;DHT22;1900;48.890;9.190;2022-12-18T04:40:15;-2.10;51.80
3770;DHT22;1900;48.890;9.190;2022-12-18T04:42:44;-2.10;51.80
3770;DHT22;1900;48.890;9.190;2022-12-18T04:45:10;-2.10;51.80
3770;DHT22;1900;48.890;9.190;2022-12-18T04:47:35;-2.10;51.70
3770;DHT22;1900;48.890;9.190;2022-12-18T04:50:02;-2.10;51.70
3770;DHT22;1900;48.890;9.190;2022-12-18T04:52:27;-2.10;51.60
3770;DHT22;1900;48.890;9.190;2022-12-18T04:54:53;-2.10;51.60
3770;DHT22;1900;48.890;9.190;2022-12-18T04:57:19;-2.10;51.60
3770;DHT22;1900;48.890;9.190;2022-12-18T04:59:44;-2.10;51.60
3770;DHT22;1900;48.890;9.190;2022-12-18T05:02:10;-2.10;51.60
3770;DHT22;1900;48.890;9.190;2022-12-18T05:04:36;-2.10;51.60
3770;DHT22;1900;48.890;9.190;2022-12-18T05:07:05;-2.10;51.60
3770;DHT22;1900;48.890;9.190;2022-12-18T05:09:30;-2.10;51.50
3770;DHT22;1900;48.890;9.190;2022-12-18T05:11:56;-2.10;51.50
3770;DHT22;1900;48.890;9.190;2022-12-18T05:14:21;-2.20;51.40
3770;DHT22;1900;48.890;9.190;2022-12-18T05:16:48;-2.20;51.40
3770;DHT22;1900;48.890;9.190;2022-12-18T05:19:16;-2.10;51.50
3770;DHT22;1900;48.890;9.190;2022-12-18T05:21:42;-2.20;51.40
3770;DHT22;1900;48.890;9.190;2022-12-18T05:24:08;-2.20;51.40
3770;DHT22;1900;48.890;9.190;2022-12-18T05:26:33;-2.20;51.40
3770;DHT22;1900;48.890;9.190;2022-12-18T05:28:59;-2.20;51.40
3770;DHT22;1900;48.890;9.190;2022-12-18T05:31:24;-2.20;51.40
3770;DHT22;1900;48.890;9.190;2022-12-18T05:33:50;-2.20;51.40
3770;DHT22;1900;48.890;9.190;2022-12-18T05:36:16;-2.30;51.20
3770;DHT22;1900;48.890;9.190;2022-12-18T05:38:41;-2.30;51.20
3770;DHT22;1900;48.890;9.190;2022-12-18T05:41:13;-2.30;51.10
3770;DHT22;1900;48.890;9.190;2022-12-18T05:43:39;-2.30;51.10
3770;DHT22;1900;48.890;9.190;2022-12-18T05:46:13;-2.30;51.10
3770;DHT22;1900;48.890;9.190;2022-12-18T05:48:38;-2.40;51.10
3770;DHT22;1900;48.890;9.190;2022-12-18T05:51:06;-2.40;51.10
3770;DHT22;1900;48.890;9.190;2022-12-18T05:53:32;-2.40;51.00
3770;DHT22;1900;48.890;9.190;2022-12-18T05:56:04;-2.40;51.00
3770;DHT22;1900;48.890;9.190;2022-12-18T05:58:30;-2.40;51.00
3770;DHT22;1900;48.890;9.190;2022-12-18T06:00:57;-2.50;50.90
3770;DHT22;1900;48.890;9.190;2022-12-18T06:03:23;-2.50;51.00
3770;DHT22;1900;48.890;9.190;2022-12-18T06:05:49;-2.50;51.00
3770;DHT22;1900;48.890;9.190;2022-12-18T06:08:15;-2.50;51.00
3770;DHT22;1900;48.890;9.190;2022-12-18T06:10:41;-2.60;51.00
3770;DHT22;1900;48.890;9.190;2022-12-18T06:13:07;-2.60;51.00
3770;DHT22;1900;48.890;9.190;2022-12-18T06:15:35;-2.50;51.10
3770;DHT22;1900;48.890;9.190;2022-12-18T06:18:04;-2.50;51.10
3770;DHT22;1900;48.890;9.190;2022-12-18T06:20:29;-2.60;51.00
3770;DHT22;1900;48.890;9.190;2022-12-18T06:22:57;-2.60;51.00
3770;DHT22;1900;48.890;9.190;2022-12-18T06:25:23;-2.60;50.90
3770;DHT22;1900;48.890;9.190;2022-12-18T06:27:49;-2.60;50.90
3770;DHT22;1900;48.890;9.190;2022-12-18T06:30:14;-2.60;50.80
3770;DHT22;1900;48.890;9.190;2022-12-18T06:32:40;-2.70;50.70
3770;DHT22;1900;48.890;9.190;2022-12-18T06:35:06;-2.70;50.70
3770;DHT22;1900;48.890;9.190;2022-12-18T06:37:36;-2.70;50.70
3770;DHT22;1900;48.890;9.190;2022-12-18T06:40:01;-2.70;50.70
3770;DHT22;1900;48.890;9.190;2022-12-18T06:42:28;-2.80;50.60
3770;DHT22;1900;48.890;9.190;2022-12-18T06:44:54;-2.80;50.60
3770;DHT22;1900;48.890;9.190;2022-12-18T06:47:20;-2.80;50.50
3770;DHT22;1900;48.890;9.190;2022-12-18T06:49:45;-2.90;50.30
3770;DHT22;1900;48.890;9.190;2022-12-18T06:52:11;-2.90;50.30
3770;DHT22;1900;48.890;9.190;2022-12-18T06:54:37;-2.90;50.20
3770;DHT22;1900;48.890;9.190;2022-12-18T06:57:03;-3.00;50.20
3770;DHT22;1900;48.890;9.190;2022-12-18T06:59:28;-3.00;50.30
3770;DHT22;1900;48.890;9.190;2022-12-18T07:01:56;-3.00;50.40
3770;DHT22;1900;48.890;9.190;2022-12-18T07:04:24;-3.00;50.40
3770;DHT22;1900;48.890;9.190;2022-12-18T07:06:52;-3.00;50.40
3770;DHT22;1900;48.890;9.190;2022-12-18T07:09:17;-3.10;50.30
3770;DHT22;1900;48.890;9.190;2022-12-18T07:11:46;-3.10;50.40
3770;DHT22;1900;48.890;9.190;2022-12-18T07:14:11;-3.10;50.40
3770;DHT22;1900;48.890;9.190;2022-12-18T07:16:37;-3.10;50.40
3770;DHT22;1900;48.890;9.190;2022-12-18T07:19:03;-3.10;50.40
3770;DHT22;1900;48.890;9.190;2022-12-18T07:21:28;-3.10;50.40
3770;DHT22;1900;48.890;9.190;2022-12-18T07:23:54;-3.10;50.30
3770;DHT22;1900;48.890;9.190;2022-12-18T07:26:21;-3.20;50.30
3770;DHT22;1900;48.890;9.190;2022-12-18T07:28:47;-3.20;50.30
3770;DHT22;1900;48.890;9.190;2022-12-18T07:31:21;-3.20;50.40
3770;DHT22;1900;48.890;9.190;2022-12-18T07:33:47;-3.20;50.30
3770;DHT22;1900;48.890;9.190;2022-12-18T07:36:13;-3.20;50.30
3770;DHT22;1900;48.890;9.190;2022-12-18T07:38:42;-3.20;50.30
3770;DHT22;1900;48.890;9.190;2022-12-18T07:41:12;-3.20;50.30
3770;DHT22;1900;48.890;9.190;2022-12-18T07:43:39;-3.20;50.30
3770;DHT22;1900;48.890;9.190;2022-12-18T07:46:06;-3.20;50.30
3770;DHT22;1900;48.890;9.190;2022-12-18T07:48:32;-3.20;50.40
3770;DHT22;1900;48.890;9.190;2022-12-18T07:51:05;-3.20;50.50
3770;DHT22;1900;48.890;9.190;2022-12-18T07:53:32;-3.20;50.50
3770;DHT22;1900;48.890;9.190;2022-12-18T07:56:03;-3.20;50.50
3770;DHT22;1900;48.890;9.190;2022-12-18T07:58:30;-3.20;50.50
3770;DHT22;1900;48.890;9.190;2022-12-18T08:01:07;-3.20;50.60
3770;DHT22;1900;48.890;9.190;2022-12-18T08:03:34;-3.20;50.70
3770;DHT22;1900;48.890;9.190;2022-12-18T08:06:01;-3.20;50.80
3770;DHT22;1900;48.890;9.190;2022-12-18T08:08:27;-3.10;50.90
3770;DHT22;1900;48.890;9.190;2022-12-18T08:10:53;-3.10;50.80
3770;DHT22;1900;48.890;9.190;2022-12-18T08:13:19;-3.10;50.80
3770;DHT22;1900;48.890;9.190;2022-12-18T08:15:44;-3.10;50.80
3770;DHT22;1900;48.890;9.190;2022-12-18T08:18:10;-3.00;50.80
3770;DHT22;1900;48.890;9.190;2022-12-18T08:20:35;-3.00;50.80
3770;DHT22;1900;48.890;9.190;2022-12-18T08:23:04;-3.10;50.70
3770;DHT22;1900;48.890;9.190;2022-12-18T08:25:30;-3.00;50.80
3770;DHT22;1900;48.890;9.190;2022-12-18T08:27:55;-3.10;50.80
3770;DHT22;1900;48.890;9.190;2022-12-18T08:30:22;-3.00;50.80
3770;DHT22;1900;48.890;9.190;2022-12-18T08:32:51;-3.00;50.80
3770;DHT22;1900;48.890;9.190;2022-12-18T08:35:18;-3.00;50.90
3770;DHT22;1900;48.890;9.190;2022-12-18T08:37:44;-3.00;50.80
3770;DHT22;1900;48.890;9.190;2022-12-18T08:40:10;-3.00;50.80
3770;DHT22;1900;48.890;9.190;2022-12-18T08:42:35;-2.90;51.00
3770;DHT22;1900;48.890;9.190;2022-12-18T08:45:19;-2.90;51.10
3770;DHT22;1900;48.890;9.190;2022-12-18T08:47:45;-2.90;51.10
3770;DHT22;1900;48.890;9.190;2022-12-18T08:50:11;-2.90;51.10
3770;DHT22;1900;48.890;9.190;2022-12-18T08:52:37;-2.90;51.20
3770;DHT22;1900;48.890;9.190;2022-12-18T08:55:03;-2.80;51.30
3770;DHT22;1900;48.890;9.190;2022-12-18T08:57:29;-2.80;51.30
3770;DHT22;1900;48.890;9.190;2022-12-18T08:59:55;-2.80;51.30
3770;DHT22;1900;48.890;9.190;2022-12-18T09:02:20;-2.70;51.40
3770;DHT22;1900;48.890;9.190;2022-12-18T09:04:47;-2.70;51.40
3770;DHT22;1900;48.890;9.190;2022-12-18T09:07:13;-2.70;51.40
3770;DHT22;1900;48.890;9.190;2022-12-18T09:09:38;-2.60;51.60
3770;DHT22;1900;48.890;9.190;2022-12-18T09:12:04;-2.60;51.60
3770;DHT22;1900;48.890;9.190;2022-12-18T09:14:29;-2.60;51.60
3770;DHT22;1900;48.890;9.190;2022-12-18T09:16:55;-2.50;51.80
3770;DHT22;1900;48.890;9.190;2022-12-18T09:19:21;-2.50;51.80
3770;DHT22;1900;48.890;9.190;2022-12-18T09:21:46;-2.40;51.90
3770;DHT22;1900;48.890;9.190;2022-12-18T09:24:13;-2.40;51.90
3770;DHT22;1900;48.890;9.190;2022-12-18T09:26:39;-2.30;52.10
3770;DHT22;1900;48.890;9.190;2022-12-18T09:29:05;-2.30;51.90
3770;DHT22;1900;48.890;9.190;2022-12-18T09:31:33;-2.30;51.90
3770;DHT22;1900;48.890;9.190;2022-12-18T09:33:58;-2.30;51.80
3770;DHT22;1900;48.890;9.190;2022-12-18T09:36:24;-2.20;51.90
3770;DHT22;1900;48.890;9.190;2022-12-18T09:38:50;-2.20;52.00
3770;DHT22;1900;48.890;9.190;2022-12-18T09:41:50;-2.20;52.10
3770;DHT22;1900;48.890;9.190;2022-12-18T09:45:01;-2.10;52.10
3770;DHT22;1900;48.890;9.190;2022-12-18T09:50:04;-2.10;52.20
3770;DHT22;1900;48.890;9.190;2022-12-18T09:52:40;-2.00;52.40
3770;DHT22;1900;48.890;9.190;2022-12-18T09:55:28;-2.00;52.40
3770;DHT22;1900;48.890;9.190;2022-12-18T09:58:00;-1.90;52.50
3770;DHT22;1900;48.890;9.190;2022-12-18T10:00:30;-1.90;52.60
3770;DHT22;1900;48.890;9.190;2022-12-18T10:03:01;-1.80;52.80
3770;DHT22;1900;48.890;9.190;2022-12-18T10:08:35;-1.70;53.00
3770;DHT22;1900;48.890;9.190;2022-12-18T10:22:11;-1.30;53.80
3770;DHT22;1900;48.890;9.190;2022-12-18T10:24:55;-1.20;53.90
3770;DHT22;1900;48.890;9.190;2022-12-18T10:27:25;-1.10;53.90
3770;DHT22;1900;48.890;9.190;2022-12-18T10:29:52;-1.10;53.80
3770;DHT22;1900;48.890;9.190;2022-12-18T10:32:27;-1.00;53.90
3770;DHT22;1900;48.890;9.190;2022-12-18T10:34:55;-0.90;54.00
3770;DHT22;1900;48.890;9.190;2022-12-18T10:37:25;-0.80;54.10
3770;DHT22;1900;48.890;9.190;2022-12-18T10:42:36;-0.70;54.30
3770;DHT22;1900;48.890;9.190;2022-12-18T10:45:12;-0.60;54.40
3770;DHT22;1900;48.890;9.190;2022-12-18T10:47:46;-0.50;54.50
3770;DHT22;1900;48.890;9.190;2022-12-18T10:50:31;-0.50;54.50
3770;DHT22;1900;48.890;9.190;2022-12-18T10:52:59;-0.30;54.60
3770;DHT22;1900;48.890;9.190;2022-12-18T10:55:39;-0.30;54.60
3770;DHT22;1900;48.890;9.190;2022-12-18T11:01:14;-0.10;54.80
3770;DHT22;1900;48.890;9.190;2022-12-18T11:08:39;0.10;54.90
3770;DHT22;1900;48.890;9.190;2022-12-18T11:11:41;0.10;54.90
3770;DHT22;1900;48.890;9.190;2022-12-18T11:14:05;0.20;55.00
3770;DHT22;1900;48.890;9.190;2022-12-18T11:16:37;0.30;55.10
3770;DHT22;1900;48.890;9.190;2022-12-18T11:19:34;0.30;55.10
3770;DHT22;1900;48.890;9.190;2022-12-18T11:22:01;0.40;55.80
3770;DHT22;1900;48.890;9.190;2022-12-18T11:24:31;0.40;55.30
3770;DHT22;1900;48.890;9.190;2022-12-18T11:27:05;0.50;55.30
3770;DHT22;1900;48.890;9.190;2022-12-18T11:29:38;0.60;55.50
3770;DHT22;1900;48.890;9.190;2022-12-18T11:34:58;0.70;55.70
3770;DHT22;1900;48.890;9.190;2022-12-18T11:37:34;0.80;55.80
3770;DHT22;1900;48.890;9.190;2022-12-18T11:40:12;0.80;56.30
3770;DHT22;1900;48.890;9.190;2022-12-18T11:42:51;0.90;56.40
3770;DHT22;1900;48.890;9.190;2022-12-18T11:45:28;1.00;55.90
3770;DHT22;1900;48.890;9.190;2022-12-18T11:48:09;1.00;55.90
3770;DHT22;1900;48.890;9.190;2022-12-18T11:50:51;1.10;56.00
3770;DHT22;1900;48.890;9.190;2022-12-18T11:53:17;1.20;56.10
3770;DHT22;1900;48.890;9.190;2022-12-18T12:01:52;1.40;56.40
3770;DHT22;1900;48.890;9.190;2022-12-18T12:12:32;1.60;56.60
3770;DHT22;1900;48.890;9.190;2022-12-18T12:18:08;1.80;56.80
3770;DHT22;1900;48.890;9.190;2022-12-18T12:20:54;1.90;57.00
3770;DHT22;1900;48.890;9.190;2022-12-18T12:23:41;1.90;57.00
3770;DHT22;1900;48.890;9.190;2022-12-18T12:31:47;2.10;57.10
3770;DHT22;1900;48.890;9.190;2022-12-18T12:34:26;2.20;57.20
3770;DHT22;1900;48.890;9.190;2022-12-18T12:39:43;2.30;57.20
3770;DHT22;1900;48.890;9.190;2022-12-18T12:42:24;2.40;57.30
3770;DHT22;1900;48.890;9.190;2022-12-18T12:45:18;2.40;57.30
3770;DHT22;1900;48.890;9.190;2022-12-18T12:47:48;2.50;57.40
3770;DHT22;1900;48.890;9.190;2022-12-18T12:50:17;2.50;57.40
3770;DHT22;1900;48.890;9.190;2022-12-18T12:52:51;2.60;57.50
3770;DHT22;1900;48.890;9.190;2022-12-18T12:55:21;2.70;57.60
3770;DHT22;1900;48.890;9.190;2022-12-18T12:58:30;2.70;57.60
3770;DHT22;1900;48.890;9.190;2022-12-18T13:01:16;2.80;57.70
3770;DHT22;1900;48.890;9.190;2022-12-18T13:06:40;2.90;57.90
3770;DHT22;1900;48.890;9.190;2022-12-18T13:09:07;2.90;57.80
3770;DHT22;1900;48.890;9.190;2022-12-18T13:11:37;3.00;57.90
3770;DHT22;1900;48.890;9.190;2022-12-18T13:14:37;3.00;57.80
3770;DHT22;1900;48.890;9.190;2022-12-18T13:20:08;3.10;58.00
3770;DHT22;1900;48.890;9.190;2022-12-18T13:22:42;3.20;58.00
3770;DHT22;1900;48.890;9.190;2022-12-18T13:35:52;3.30;57.90
3770;DHT22;1900;48.890;9.190;2022-12-18T13:43:48;3.40;57.90
3770;DHT22;1900;48.890;9.190;2022-12-18T13:51:54;3.40;57.80
3770;DHT22;1900;48.890;9.190;2022-12-18T13:54:33;3.40;57.80
3770;DHT22;1900;48.890;9.190;2022-12-18T13:57:04;3.40;57.80
3770;DHT22;1900;48.890;9.190;2022-12-18T13:59:37;3.50;58.10
3770;DHT22;1900;48.890;9.190;2022-12-18T14:02:16;3.50;57.90
3770;DHT22;1900;48.890;9.190;2022-12-18T14:04:45;3.50;58.00
3770;DHT22;1900;48.890;9.190;2022-12-18T14:07:15;3.50;57.90
3770;DHT22;1900;48.890;9.190;2022-12-18T14:09:50;3.50;57.90
3770;DHT22;1900;48.890;9.190;2022-12-18T14:12:21;3.50;57.80
3770;DHT22;1900;48.890;9.190;2022-12-18T14:18:11;3.60;57.90
3770;DHT22;1900;48.890;9.190;2022-12-18T14:20:43;3.50;57.80
3770;DHT22;1900;48.890;9.190;2022-12-18T14:25:53;3.50;57.70
3770;DHT22;1900;48.890;9.190;2022-12-18T14:28:19;3.50;57.70
3770;DHT22;1900;48.890;9.190;2022-12-18T14:30:46;3.50;57.80
3770;DHT22;1900;48.890;9.190;2022-12-18T14:33:14;3.50;57.80
3770;DHT22;1900;48.890;9.190;2022-12-18T14:35:42;3.50;57.80
3770;DHT22;1900;48.890;9.190;2022-12-18T14:40:47;3.60;57.80
3770;DHT22;1900;48.890;9.190;2022-12-18T14:43:13;3.60;57.90
3770;DHT22;1900;48.890;9.190;2022-12-18T14:45:42;3.60;57.80
3770;DHT22;1900;48.890;9.190;2022-12-18T14:48:31;3.60;57.80
3770;DHT22;1900;48.890;9.190;2022-12-18T14:51:01;3.60;57.80
3770;DHT22;1900;48.890;9.190;2022-12-18T14:53:51;3.60;57.80
3770;DHT22;1900;48.890;9.190;2022-12-18T14:56:22;3.60;57.70
3770;DHT22;1900;48.890;9.190;2022-12-18T14:59:01;3.60;57.70
3770;DHT22;1900;48.890;9.190;2022-12-18T15:01:39;3.60;57.70
3770;DHT22;1900;48.890;9.190;2022-12-18T15:07:20;3.50;57.50
3770;DHT22;1900;48.890;9.190;2022-12-18T15:16:01;3.40;57.30
3770;DHT22;1900;48.890;9.190;2022-12-18T15:22:35;3.30;57.30
3770;DHT22;1900;48.890;9.190;2022-12-18T15:27:55;3.30;57.20
3770;DHT22;1900;48.890;9.190;2022-12-18T15:30:22;3.20;57.20
3770;DHT22;1900;48.890;9.190;2022-12-18T15:32:48;3.20;57.10
3770;DHT22;1900;48.890;9.190;2022-12-18T15:35:23;3.20;57.10
3770;DHT22;1900;48.890;9.190;2022-12-18T15:37:51;3.20;57.10
3770;DHT22;1900;48.890;9.190;2022-12-18T15:40:23;3.10;56.90
3770;DHT22;1900;48.890;9.190;2022-12-18T15:42:52;3.10;57.00
3770;DHT22;1900;48.890;9.190;2022-12-18T15:45:38;3.10;57.00
3770;DHT22;1900;48.890;9.190;2022-12-18T15:48:17;3.10;57.00
3770;DHT22;1900;48.890;9.190;2022-12-18T15:50:44;3.10;57.10
3770;DHT22;1900;48.890;9.190;2022-12-18T15:53:10;3.00;56.90
3770;DHT22;1900;48.890;9.190;2022-12-18T15:55:35;3.00;56.90
3770;DHT22;1900;48.890;9.190;2022-12-18T15:58:20;3.00;56.90
3770;DHT22;1900;48.890;9.190;2022-12-18T16:00:46;3.00;56.90
3770;DHT22;1900;48.890;9.190;2022-12-18T16:03:11;3.00;56.90
3770;DHT22;1900;48.890;9.190;2022-12-18T16:05:37;2.90;56.80
3770;DHT22;1900;48.890;9.190;2022-12-18T16:08:03;3.00;56.90
3770;DHT22;1900;48.890;9.190;2022-12-18T16:10:29;2.90;56.90
3770;DHT22;1900;48.890;9.190;2022-12-18T16:12:54;2.90;56.90
3770;DHT22;1900;48.890;9.190;2022-12-18T16:15:20;2.90;56.90
3770;DHT22;1900;48.890;9.190;2022-12-18T16:17:47;2.90;57.00
3770;DHT22;1900;48.890;9.190;2022-12-18T16:20:19;2.90;56.90
3770;DHT22;1900;48.890;9.190;2022-12-18T16:22:47;2.90;56.90
3770;DHT22;1900;48.890;9.190;2022-12-18T16:25:25;2.90;56.90
3770;DHT22;1900;48.890;9.190;2022-12-18T16:27:52;2.90;57.00
3770;DHT22;1900;48.890;9.190;2022-12-18T16:30:22;2.90;57.00
3770;DHT22;1900;48.890;9.190;2022-12-18T16:32:48;2.90;57.00
3770;DHT22;1900;48.890;9.190;2022-12-18T16:35:16;2.80;56.90
3770;DHT22;1900;48.890;9.190;2022-12-18T16:37:43;2.90;57.00
3770;DHT22;1900;48.890;9.190;2022-12-18T16:40:11;2.90;57.00
3770;DHT22;1900;48.890;9.190;2022-12-18T16:42:39;2.90;57.00
3770;DHT22;1900;48.890;9.190;2022-12-18T16:45:13;2.80;56.90
3770;DHT22;1900;48.890;9.190;2022-12-18T16:47:39;2.80;56.80
3770;DHT22;1900;48.890;9.190;2022-12-18T16:50:09;2.80;56.90
3770;DHT22;1900;48.890;9.190;2022-12-18T16:52:35;2.80;56.80
3770;DHT22;1900;48.890;9.190;2022-12-18T16:55:01;2.80;56.80
3770;DHT22;1900;48.890;9.190;2022-12-18T16:57:30;2.80;56.80
3770;DHT22;1900;48.890;9.190;2022-12-18T16:59:56;2.80;56.80
3770;DHT22;1900;48.890;9.190;2022-12-18T17:02:24;2.80;56.80
3770;DHT22;1900;48.890;9.190;2022-12-18T17:04:53;2.80;56.90
3770;DHT22;1900;48.890;9.190;2022-12-18T17:07:19;2.80;57.00
3770;DHT22;1900;48.890;9.190;2022-12-18T17:09:45;2.80;57.00
3770;DHT22;1900;48.890;9.190;2022-12-18T17:12:11;2.80;57.10
3770;DHT22;1900;48.890;9.190;2022-12-18T17:14:37;2.90;57.60
3770;DHT22;1900;48.890;9.190;2022-12-18T17:17:02;2.90;57.70
3770;DHT22;1900;48.890;9.190;2022-12-18T17:19:32;2.90;57.50
3770;DHT22;1900;48.890;9.190;2022-12-18T17:21:58;2.90;57.40
3770;DHT22;1900;48.890;9.190;2022-12-18T17:24:23;2.90;57.30
3770;DHT22;1900;48.890;9.190;2022-12-18T17:26:49;2.90;57.20
3770;DHT22;1900;48.890;9.190;2022-12-18T17:29:17;2.90;57.20
3770;DHT22;1900;48.890;9.190;2022-12-18T17:31:44;2.90;57.10
3770;DHT22;1900;48.890;9.190;2022-12-18T17:34:11;3.00;57.10
3770;DHT22;1900;48.890;9.190;2022-12-18T17:36:37;3.00;57.00
3770;DHT22;1900;48.890;9.190;2022-12-18T17:39:05;2.90;57.00
3770;DHT22;1900;48.890;9.190;2022-12-18T17:41:32;2.90;57.00
3770;DHT22;1900;48.890;9.190;2022-12-18T17:44:04;2.90;57.00
3770;DHT22;1900;48.890;9.190;2022-12-18T17:46:31;2.90;57.00
3770;DHT22;1900;48.890;9.190;2022-12-18T17:48:59;2.90;57.00
3770;DHT22;1900;48.890;9.190;2022-12-18T17:51:25;2.90;57.00
3770;DHT22;1900;48.890;9.190;2022-12-18T17:53:51;2.90;57.00
3770;DHT22;1900;48.890;9.190;2022-12-18T17:56:19;2.90;57.00
3770;DHT22;1900;48.890;9.190;2022-12-18T17:58:45;2.90;56.90
3770;DHT22;1900;48.890;9.190;2022-12-18T18:01:14;2.90;56.90
3770;DHT22;1900;48.890;9.190;2022-12-18T18:03:40;2.90;57.00
3770;DHT22;1900;48.890;9.190;2022-12-18T18:06:06;2.80;56.90
3770;DHT22;1900;48.890;9.190;2022-12-18T18:08:34;2.80;56.80
3770;DHT22;1900;48.890;9.190;2022-12-18T18:11:21;2.80;56.80
3770;DHT22;1900;48.890;9.190;2022-12-18T18:14:12;2.80;56.80
3770;DHT22;1900;48.890;9.190;2022-12-18T18:16:41;2.80;56.80
3770;DHT22;1900;48.890;9.190;2022-12-18T18:19:11;2.80;56.80
3770;DHT22;1900;48.890;9.190;2022-12-18T18:21:39;2.80;56.80
3770;DHT22;1900;48.890;9.190;2022-12-18T18:24:06;2.80;56.80
3770;DHT22;1900;48.890;9.190;2022-12-18T18:26:33;2.80;56.80
3770;DHT22;1900;48.890;9.190;2022-12-18T18:29:03;2.80;56.80
3770;DHT22;1900;48.890;9.190;2022-12-18T18:31:31;2.70;56.70
3770;DHT22;1900;48.890;9.190;2022-12-18T18:33:59;2.80;56.80
3770;DHT22;1900;48.890;9.190;2022-12-18T18:36:28;2.80;56.80